Time;durP1;ratioP1;P1;durP2;ratioP2;P2;SDS_P1;SDS_P2;PMS_P1;PMS_P2;Temp;Humidity;BMP_temperature;BMP_pressure;BME280_temperature;BME280_humidity;BME280_pressure;Samples;Min_cycle;Max_cycle;Signal;HPM_P1;HPM_P2
2021/01/18 00:01:41;;;;;;;4.75;1.60;;;;;;;;;;5053721;28;20029;-79
2021/01/18 00:04:07;;;;;;;4.72;1.40;;;;;;;;;;5036435;28;20045;-79
2021/01/18 00:06:34;;;;;;;6.85;1.63;;;;;;;;;;5037551;28;20033;-79
2021/01/18 00:09:00;;;;;;;6.07;1.45;;;;;;;;;;5036160;28;20025;-79
2021/01/18 00:11:27;;;;;;;6.20;1.50;;;;;;;;;;5044648;28;20075;-80
2021/01/18 00:13:54;;;;;;;5.68;1.90;;;;;;;;;;5057813;28;20074;-79
2021/01/18 00:16:22;;;;;;;6.22;1.38;;;;;;;;;;5056329;28;20025;-79
2021/01/18 00:18:48;;;;;;;4.72;0.95;;;;;;;;;;5057972;28;20033;-79
2021/01/18 00:21:15;;;;;;;5.75;1.48;;;;;;;;;;5057566;28;20025;-79
2021/01/18 00:23:41;;;;;;;5.18;1.83;;;;;;;;;;5056377;28;20029;-79
2021/01/18 00:26:08;;;;;;;4.70;1.58;;;;;;;;;;5057907;28;20021;-79
2021/01/18 00:28:35;;;;;;;3.88;1.63;;;;;;;;;;5057898;28;20028;-79
2021/01/18 00:31:02;;;;;;;6.32;1.90;;;;;;;;;;5057347;28;20033;-79
2021/01/18 00:33:28;;;;;;;5.72;1.65;;;;;;;;;;5057508;28;20403;-79
2021/01/18 00:35:54;;;;;;;5.82;1.40;;;;;;;;;;5057066;28;20039;-79
2021/01/18 00:38:20;;;;;;;5.10;1.25;;;;;;;;;;5057270;28;20025;-79
2021/01/18 00:40:46;;;;;;;8.70;1.88;;;;;;;;;;5057002;28;20029;-79
2021/01/18 00:43:13;;;;;;;3.00;1.50;;;;;;;;;;5056595;28;20052;-79
2021/01/18 00:45:39;;;;;;;5.97;1.77;;;;;;;;;;5057479;28;20546;-79
2021/01/18 00:48:05;;;;;;;4.53;1.40;;;;;;;;;;5056902;28;20476;-79
2021/01/18 00:50:31;;;;;;;5.38;1.30;;;;;;;;;;5056230;28;20068;-79
2021/01/18 00:52:58;;;;;;;7.57;1.35;;;;;;;;;;5055636;28;20115;-79
2021/01/18 00:55:25;;;;;;;3.97;1.48;;;;;;;;;;5057250;28;20025;-79
2021/01/18 00:57:51;;;;;;;5.28;1.70;;;;;;;;;;5057531;28;20524;-79
2021/01/18 01:00:17;;;;;;;3.85;1.30;;;;;;;;;;5055278;28;20037;-79
2021/01/18 01:02:44;;;;;;;5.43;1.27;;;;;;;;;;5042764;28;20072;-79
2021/01/18 01:05:11;;;;;;;5.47;1.20;;;;;;;;;;5035161;28;20504;-79
2021/01/18 01:07:41;;;;;;;3.60;1.73;;;;;;;;;;5037218;28;20034;-79
2021/01/18 01:10:08;;;;;;;8.85;1.75;;;;;;;;;;5037155;28;20092;-79
2021/01/18 01:12:34;;;;;;;4.75;1.50;;;;;;;;;;5055753;28;20029;-79
2021/01/18 01:15:00;;;;;;;6.65;1.60;;;;;;;;;;5059987;28;20056;-79
2021/01/18 01:17:26;;;;;;;5.03;1.23;;;;;;;;;;5061464;28;20032;-79
2021/01/18 01:19:53;;;;;;;6.47;1.42;;;;;;;;;;5061047;28;20032;-79
2021/01/18 01:22:19;;;;;;;5.95;1.65;;;;;;;;;;5059411;28;20025;-79
2021/01/18 01:24:45;;;;;;;6.13;1.55;;;;;;;;;;5061053;28;20029;-79
2021/01/18 01:27:11;;;;;;;5.93;1.48;;;;;;;;;;5059577;28;20090;-79
2021/01/18 01:29:37;;;;;;;3.47;1.48;;;;;;;;;;5059924;28;20427;-79
2021/01/18 01:32:03;;;;;;;3.42;1.40;;;;;;;;;;5059268;28;20053;-79
2021/01/18 01:34:29;;;;;;;5.10;1.50;;;;;;;;;;5061044;28;20021;-79
2021/01/18 01:36:56;;;;;;;6.57;1.70;;;;;;;;;;5061063;28;20404;-79
2021/01/18 01:39:22;;;;;;;4.18;1.45;;;;;;;;;;5059399;28;20057;-79
2021/01/18 01:41:48;;;;;;;6.95;1.42;;;;;;;;;;5060161;28;20029;-79
2021/01/18 01:44:14;;;;;;;4.90;1.30;;;;;;;;;;5059518;28;20369;-79
2021/01/18 01:46:40;;;;;;;4.63;1.33;;;;;;;;;;5059529;28;20475;-79
2021/01/18 01:49:06;;;;;;;6.85;1.83;;;;;;;;;;5060381;28;20036;-79
2021/01/18 01:51:33;;;;;;;5.47;1.83;;;;;;;;;;5059466;28;20039;-79
2021/01/18 01:54:00;;;;;;;9.43;1.80;;;;;;;;;;5059188;28;20029;-79
2021/01/18 01:56:26;;;;;;;4.80;1.58;;;;;;;;;;5060151;28;20025;-79
2021/01/18 01:58:54;;;;;;;4.47;1.25;;;;;;;;;;5059218;28;20115;-79
2021/01/18 02:01:22;;;;;;;6.47;1.70;;;;;;;;;;5057457;28;20120;-78
2021/01/18 02:03:51;;;;;;;4.55;1.55;;;;;;;;;;5055159;28;20017;-79
2021/01/18 02:06:18;;;;;;;3.83;1.58;;;;;;;;;;5054832;28;20024;-79
2021/01/18 02:08:44;;;;;;;4.50;1.15;;;;;;;;;;5055141;28;20025;-79
2021/01/18 02:11:10;;;;;;;2.92;1.35;;;;;;;;;;5051079;28;20079;-78
2021/01/18 02:13:42;;;;;;;4.57;1.25;;;;;;;;;;5036539;28;20029;-79
2021/01/18 02:16:11;;;;;;;5.15;1.73;;;;;;;;;;5036212;28;20101;-79
2021/01/18 02:18:37;;;;;;;6.25;1.23;;;;;;;;;;5036047;28;20052;-78
2021/01/18 02:21:18;;;;;;;4.22;1.23;;;;;;;;;;5035101;28;20053;-78
2021/01/18 02:23:48;;;;;;;3.60;1.33;;;;;;;;;;5034699;28;20025;-78
2021/01/18 02:26:14;;;;;;;4.47;1.33;;;;;;;;;;5034640;28;20045;-79
2021/01/18 02:28:40;;;;;;;6.07;1.80;;;;;;;;;;5034700;28;20030;-79
2021/01/18 02:31:24;;;;;;;6.05;1.73;;;;;;;;;;5036180;28;20025;-78
2021/01/18 02:34:09;;;;;;;4.05;1.13;;;;;;;;;;5034610;28;20381;-78
2021/01/18 02:36:38;;;;;;;5.10;1.15;;;;;;;;;;5035567;28;20639;-79
2021/01/18 02:39:15;;;;;;;4.65;1.20;;;;;;;;;;5035621;28;20021;-79
2021/01/18 02:42:05;;;;;;;4.15;1.30;;;;;;;;;;5034223;28;20385;-79
2021/01/18 02:44:32;;;;;;;1.80;0.77;;;;;;;;;;5034392;28;20025;-79
2021/01/18 02:46:58;;;;;;;7.38;1.73;;;;;;;;;;5035783;28;20120;-79
2021/01/18 02:49:25;;;;;;;6.93;1.52;;;;;;;;;;5034216;28;20037;-79
2021/01/18 02:51:55;;;;;;;4.43;1.20;;;;;;;;;;5035451;28;20480;-79
2021/01/18 02:54:22;;;;;;;3.83;1.52;;;;;;;;;;5034348;28;20449;-79
2021/01/18 02:56:52;;;;;;;4.00;1.20;;;;;;;;;;5034321;28;20120;-79
2021/01/18 02:59:18;;;;;;;5.38;1.45;;;;;;;;;;5035226;28;20025;-79
2021/01/18 03:01:50;;;;;;;4.40;1.27;;;;;;;;;;5039674;28;20037;-79
2021/01/18 03:04:22;;;;;;;3.00;1.10;;;;;;;;;;5053547;28;20041;-79
2021/01/18 03:07:00;;;;;;;7.57;1.33;;;;;;;;;;5053920;28;20110;-79
2021/01/18 03:09:32;;;;;;;5.38;1.17;;;;;;;;;;5055369;28;20028;-79
2021/01/18 03:12:03;;;;;;;4.32;1.00;;;;;;;;;;5042127;28;20026;-79
2021/01/18 03:14:30;;;;;;;4.25;1.40;;;;;;;;;;5033851;28;20037;-78
2021/01/18 03:16:57;;;;;;;4.10;1.45;;;;;;;;;;5034009;28;20132;-79
2021/01/18 03:19:43;;;;;;;2.58;1.20;;;;;;;;;;5034829;28;20030;-79
2021/01/18 03:22:23;;;;;;;5.00;1.75;;;;;;;;;;5033647;28;20034;-78
2021/01/18 03:24:49;;;;;;;4.68;1.00;;;;;;;;;;5035169;28;20032;-79
2021/01/18 03:27:15;;;;;;;2.42;0.75;;;;;;;;;;5033979;28;20030;-79
2021/01/18 03:29:42;;;;;;;5.72;1.25;;;;;;;;;;5033952;28;20025;-78
2021/01/18 03:32:09;;;;;;;2.65;0.90;;;;;;;;;;5033815;28;20036;-79
2021/01/18 03:34:35;;;;;;;3.50;1.38;;;;;;;;;;5034688;28;20389;-79
2021/01/18 03:37:02;;;;;;;4.70;1.23;;;;;;;;;;5033646;28;20116;-79
2021/01/18 03:39:28;;;;;;;4.05;1.10;;;;;;;;;;5033420;28;20124;-79
2021/01/18 03:41:54;;;;;;;2.47;1.10;;;;;;;;;;5034520;28;20034;-79
2021/01/18 03:44:20;;;;;;;1.98;0.95;;;;;;;;;;5033312;28;20029;-79
2021/01/18 03:46:46;;;;;;;4.30;1.17;;;;;;;;;;5034666;28;20029;-79
2021/01/18 03:49:13;;;;;;;3.05;1.25;;;;;;;;;;5035089;28;20053;-79
2021/01/18 03:51:39;;;;;;;4.78;1.00;;;;;;;;;;5033453;28;20021;-79
2021/01/18 03:54:05;;;;;;;1.83;0.98;;;;;;;;;;5033603;28;20021;-79
2021/01/18 03:56:31;;;;;;;3.88;1.30;;;;;;;;;;5033214;28;20025;-79
2021/01/18 03:58:58;;;;;;;3.38;1.05;;;;;;;;;;5034087;28;20365;-79
2021/01/18 04:01:24;;;;;;;8.20;1.42;;;;;;;;;;5034379;28;20460;-79
2021/01/18 04:03:50;;;;;;;4.45;1.17;;;;;;;;;;5053091;28;20443;-79
2021/01/18 04:06:16;;;;;;;3.03;1.05;;;;;;;;;;5052351;28;20029;-79
2021/01/18 04:08:42;;;;;;;4.07;1.27;;;;;;;;;;5054346;28;20037;-79
2021/01/18 04:11:08;;;;;;;3.80;1.10;;;;;;;;;;5047832;28;20022;-79
2021/01/18 04:13:34;;;;;;;2.83;0.98;;;;;;;;;;5034162;28;20032;-79
2021/01/18 04:16:00;;;;;;;6.05;1.40;;;;;;;;;;5033111;28;20140;-79
2021/01/18 04:18:26;;;;;;;4.53;1.25;;;;;;;;;;5033810;28;20033;-79
2021/01/18 04:20:52;;;;;;;4.47;1.40;;;;;;;;;;5033962;28;20030;-79
2021/01/18 04:23:18;;;;;;;5.07;1.75;;;;;;;;;;5032883;28;20022;-79
2021/01/18 04:25:44;;;;;;;4.15;1.20;;;;;;;;;;5034109;28;20030;-79
2021/01/18 04:28:10;;;;;;;3.95;1.10;;;;;;;;;;5033750;28;20109;-79
2021/01/18 04:30:37;;;;;;;4.20;0.98;;;;;;;;;;5032698;28;20083;-79
2021/01/18 04:33:05;;;;;;;4.60;1.15;;;;;;;;;;5034251;28;20026;-79
2021/01/18 04:35:32;;;;;;;2.17;1.08;;;;;;;;;;5034095;28;20035;-79
2021/01/18 04:37:59;;;;;;;2.78;0.77;;;;;;;;;;5033848;28;20108;-79
2021/01/18 04:40:26;;;;;;;3.42;1.02;;;;;;;;;;5034014;28;20504;-79
2021/01/18 04:42:52;;;;;;;3.05;0.98;;;;;;;;;;5032655;28;20084;-79
2021/01/18 04:45:19;;;;;;;7.45;1.30;;;;;;;;;;5032728;28;20026;-79
2021/01/18 04:47:48;;;;;;;7.75;1.08;;;;;;;;;;5036560;28;20030;-79
2021/01/18 04:50:19;;;;;;;5.15;1.20;;;;;;;;;;5037965;28;20488;-79
2021/01/18 04:52:45;;;;;;;3.33;0.93;;;;;;;;;;5038218;28;20026;-79
2021/01/18 04:55:19;;;;;;;3.10;1.30;;;;;;;;;;5038315;28;20082;-79
2021/01/18 04:57:51;;;;;;;1.77;1.02;;;;;;;;;;5036592;28;20029;-79
2021/01/18 05:00:18;;;;;;;5.18;1.25;;;;;;;;;;5037873;28;20029;-79
2021/01/18 05:02:47;;;;;;;4.32;1.05;;;;;;;;;;5049167;28;20479;-79
2021/01/18 05:05:25;;;;;;;7.78;1.05;;;;;;;;;;5056506;28;20091;-78
2021/01/18 05:08:04;;;;;;;6.25;0.90;;;;;;;;;;5057780;28;20033;-78
2021/01/18 05:10:31;;;;;;;3.60;1.50;;;;;;;;;;5057629;28;20044;-78
2021/01/18 05:12:58;;;;;;;7.22;1.48;;;;;;;;;;5036963;28;20473;-78
2021/01/18 05:15:25;;;;;;;3.60;1.30;;;;;;;;;;5036509;28;20143;-79
2021/01/18 05:17:58;;;;;;;3.55;1.35;;;;;;;;;;5037292;28;20063;-79
2021/01/18 05:20:24;;;;;;;3.00;1.70;;;;;;;;;;5036066;28;20029;-79
2021/01/18 05:22:51;;;;;;;2.80;1.10;;;;;;;;;;5038123;28;20033;-79
2021/01/18 05:25:17;;;;;;;4.03;1.20;;;;;;;;;;5040960;28;20049;-79
2021/01/18 05:27:59;;;;;;;5.07;1.88;;;;;;;;;;5040937;28;20457;-79
2021/01/18 05:30:25;;;;;;;3.53;1.45;;;;;;;;;;5041492;28;20026;-79
2021/01/18 05:33:08;;;;;;;23.98;3.97;;;;;;;;;;5040834;28;20108;-79
2021/01/18 05:35:35;;;;;;;2.38;1.50;;;;;;;;;;5040178;28;20025;-80
2021/01/18 05:38:03;;;;;;;2.97;1.20;;;;;;;;;;5039903;28;20029;-80
2021/01/18 05:40:33;;;;;;;9.00;3.95;;;;;;;;;;5039566;28;20021;-80
2021/01/18 05:43:01;;;;;;;5.55;1.67;;;;;;;;;;5039339;28;20037;-80
2021/01/18 05:45:28;;;;;;;3.63;1.77;;;;;;;;;;5039817;28;20025;-80
2021/01/18 05:47:55;;;;;;;4.03;1.30;;;;;;;;;;5038246;28;20029;-79
2021/01/18 05:50:23;;;;;;;3.25;1.25;;;;;;;;;;5039386;28;20056;-79
2021/01/18 05:52:49;;;;;;;5.20;1.50;;;;;;;;;;5038973;28;20071;-79
2021/01/18 05:55:16;;;;;;;4.05;1.27;;;;;;;;;;5038775;28;20492;-79
2021/01/18 05:57:52;;;;;;;2.70;1.25;;;;;;;;;;5039328;28;20033;-80
2021/01/18 06:00:24;;;;;;;3.35;0.80;;;;;;;;;;5039735;28;20064;-80
2021/01/18 06:02:51;;;;;;;3.42;1.00;;;;;;;;;;5053531;28;20040;-80
2021/01/18 06:05:23;;;;;;;13.95;10.10;;;;;;;;;;5059448;28;20580;-80
2021/01/18 06:07:50;;;;;;;42.35;17.67;;;;;;;;;;5059234;28;20032;-81
2021/01/18 06:10:17;;;;;;;5.45;2.30;;;;;;;;;;5060701;28;20013;-81
2021/01/18 06:12:43;;;;;;;5.30;2.47;;;;;;;;;;5042316;28;20025;-80
2021/01/18 06:15:16;;;;;;;114.88;65.47;;;;;;;;;;5038427;28;20093;-80
2021/01/18 06:17:46;;;;;;;21.48;11.68;;;;;;;;;;5037922;28;20447;-79
2021/01/18 06:20:19;;;;;;;14.73;8.18;;;;;;;;;;5039034;28;20136;-79
2021/01/18 06:22:54;;;;;;;15.90;8.52;;;;;;;;;;5038675;28;20105;-79
2021/01/18 06:25:20;;;;;;;8.52;3.45;;;;;;;;;;5037719;28;20094;-79
2021/01/18 06:27:46;;;;;;;35.55;20.58;;;;;;;;;;5037082;28;20026;-79
2021/01/18 06:30:26;;;;;;;77.85;40.05;;;;;;;;;;5038175;28;20080;-79
2021/01/18 06:32:53;;;;;;;83.07;36.60;;;;;;;;;;5038042;28;20085;-79
2021/01/18 06:35:24;;;;;;;28.80;13.32;;;;;;;;;;5036594;28;20028;-79
2021/01/18 06:38:10;;;;;;;90.43;40.92;;;;;;;;;;5038518;28;20021;-79
2021/01/18 06:40:37;;;;;;;12.27;5.22;;;;;;;;;;5037687;28;20029;-79
2021/01/18 06:43:04;;;;;;;37.78;20.95;;;;;;;;;;5037059;28;20033;-79
2021/01/18 06:45:31;;;;;;;59.92;35.30;;;;;;;;;;5037227;28;20030;-79
2021/01/18 06:47:58;;;;;;;13.77;8.32;;;;;;;;;;5036828;28;20021;-79
2021/01/18 06:50:28;;;;;;;4.72;2.08;;;;;;;;;;5037233;28;20079;-79
2021/01/18 06:52:55;;;;;;;6.53;1.20;;;;;;;;;;5037455;28;20027;-79
2021/01/18 06:55:27;;;;;;;3.13;1.05;;;;;;;;;;5036349;28;20025;-79
2021/01/18 06:58:02;;;;;;;6.05;1.88;;;;;;;;;;5036156;28;20033;-79
2021/01/18 07:00:29;;;;;;;6.97;3.22;;;;;;;;;;5036060;28;20087;-79
2021/01/18 07:02:56;;;;;;;2.65;1.13;;;;;;;;;;5051359;28;20081;-79
2021/01/18 07:05:36;;;;;;;5.10;2.25;;;;;;;;;;5056513;28;20063;-79
2021/01/18 07:08:13;;;;;;;4.63;1.73;;;;;;;;;;5056376;28;20033;-79
2021/01/18 07:10:46;;;;;;;2.40;1.15;;;;;;;;;;5056223;28;20499;-79
2021/01/18 07:13:12;;;;;;;;;;;;;;;;;;5036601;28;20079;-79
2021/01/18 07:15:39;;;;;;;4.45;1.50;;;;;;;;;;5037939;28;19996;-79
2021/01/18 07:18:10;;;;;;;2.88;0.90;;;;;;;;;;5038368;28;20029;-79
2021/01/18 07:20:43;;;;;;;7.80;2.33;;;;;;;;;;5048769;28;20400;-79
2021/01/18 07:23:14;;;;;;;6.05;3.20;;;;;;;;;;5046915;28;20051;-79
2021/01/18 07:25:47;;;;;;;35.28;18.38;;;;;;;;;;5035189;28;20040;-79
2021/01/18 07:28:23;;;;;;;3.50;0.95;;;;;;;;;;5053145;28;20025;-79
2021/01/18 07:30:49;;;;;;;6.68;1.95;;;;;;;;;;5055652;28;20075;-79
2021/01/18 07:33:19;;;;;;;5.65;1.73;;;;;;;;;;5050951;28;20017;-80
2021/01/18 07:35:46;;;;;;;4.65;1.83;;;;;;;;;;5054609;28;20109;-79
2021/01/18 07:38:23;;;;;;;3.50;1.50;;;;;;;;;;5054737;28;20087;-79
2021/01/18 07:41:30;;;;;;;7.05;2.47;;;;;;;;;;5055364;28;20064;-79
2021/01/18 07:43:56;;;;;;;5.05;1.80;;;;;;;;;;5033112;28;20037;-79
2021/01/18 07:46:28;;;;;;;5.60;1.48;;;;;;;;;;5051349;28;20087;-79
2021/01/18 07:48:55;;;;;;;5.57;2.28;;;;;;;;;;5054545;28;20427;-79
2021/01/18 07:51:25;;;;;;;5.03;1.65;;;;;;;;;;5038600;28;20029;-79
2021/01/18 07:53:51;;;;;;;4.25;1.95;;;;;;;;;;5038135;28;20441;-79
2021/01/18 07:56:33;;;;;;;3.35;1.10;;;;;;;;;;5053471;28;20116;-79
2021/01/18 07:58:59;;;;;;;4.05;1.70;;;;;;;;;;5055219;28;20683;-79
2021/01/18 08:01:29;;;;;;;3.15;1.27;;;;;;;;;;5051876;28;20095;-79
2021/01/18 08:04:16;;;;;;;5.85;1.40;;;;;;;;;;5047495;28;20460;-79
2021/01/18 08:07:00;;;;;;;4.95;1.30;;;;;;;;;;5054213;28;20043;-79
2021/01/18 08:09:27;;;;;;;4.32;1.95;;;;;;;;;;5035846;28;20097;-78
2021/01/18 08:11:53;;;;;;;4.22;1.58;;;;;;;;;;5040438;28;20051;-77
2021/01/18 08:14:19;;;;;;;6.93;1.52;;;;;;;;;;5049697;28;20511;-78
2021/01/18 08:16:46;;;;;;;3.65;1.33;;;;;;;;;;5048826;28;20060;-77
2021/01/18 08:19:26;;;;;;;2.95;1.42;;;;;;;;;;5037831;28;20021;-77
2021/01/18 08:21:52;;;;;;;4.70;1.80;;;;;;;;;;5037207;28;20099;-75
2021/01/18 08:24:28;;;;;;;4.88;2.10;;;;;;;;;;5033767;28;20053;-76
2021/01/18 08:27:01;;;;;;;5.18;2.00;;;;;;;;;;5038708;28;20029;-75
2021/01/18 08:29:36;;;;;;;3.88;1.48;;;;;;;;;;5035251;28;20025;-80
2021/01/18 08:32:21;;;;;;;3.97;1.00;;;;;;;;;;5038143;28;20028;-77
2021/01/18 08:34:59;;;;;;;3.85;1.40;;;;;;;;;;5041481;28;20036;-77
2021/01/18 08:37:26;;;;;;;2.38;1.10;;;;;;;;;;5038211;28;20048;-78
2021/01/18 08:39:52;;;;;;;4.45;1.45;;;;;;;;;;5050101;28;20121;-80
2021/01/18 08:42:31;;;;;;;6.43;1.60;;;;;;;;;;5038571;28;20022;-79
2021/01/18 08:45:11;;;;;;;3.28;1.77;;;;;;;;;;5045518;28;20422;-79
2021/01/18 08:47:38;;;;;;;3.90;1.67;;;;;;;;;;5041078;28;20029;-79
2021/01/18 08:50:16;;;;;;;4.95;1.77;;;;;;;;;;5039218;28;20088;-77
2021/01/18 08:52:42;;;;;;;4.57;1.90;;;;;;;;;;5044630;28;20030;-79
2021/01/18 08:55:27;;;;;;;6.68;2.17;;;;;;;;;;5036253;28;20091;-78
2021/01/18 08:57:54;;;;;;;4.28;1.80;;;;;;;;;;5041742;28;20033;-79
2021/01/18 09:00:21;;;;;;;7.68;2.40;;;;;;;;;;5040671;28;20044;-79
2021/01/18 09:02:48;;;;;;;4.88;1.55;;;;;;;;;;5040234;28;20036;-77
2021/01/18 09:05:21;;;;;;;4.13;2.10;;;;;;;;;;5040831;28;20045;-79
2021/01/18 09:07:48;;;;;;;4.33;1.80;;;;;;;;;;5036866;28;20116;-78
2021/01/18 09:10:21;;;;;;;3.50;1.60;;;;;;;;;;5036286;28;20025;-78
2021/01/18 09:12:48;;;;;;;3.17;1.27;;;;;;;;;;5041685;28;20445;-77
2021/01/18 09:15:14;;;;;;;5.53;1.50;;;;;;;;;;5041002;28;20474;-77
2021/01/18 09:17:40;;;;;;;4.28;1.60;;;;;;;;;;5038564;28;20064;-78
2021/01/18 09:20:08;;;;;;;4.65;1.60;;;;;;;;;;5033252;28;20037;-78
2021/01/18 09:22:36;;;;;;;4.97;1.50;;;;;;;;;;5040482;28;20447;-79
2021/01/18 09:25:02;;;;;;;5.93;1.63;;;;;;;;;;5039989;28;20032;-77
2021/01/18 09:27:29;;;;;;;3.83;1.48;;;;;;;;;;5045865;28;20040;-76
2021/01/18 09:30:04;;;;;;;3.10;1.10;;;;;;;;;;5040015;28;20021;-77
2021/01/18 09:32:30;;;;;;;2.78;1.30;;;;;;;;;;5046234;28;20029;-77
2021/01/18 09:38:08;;;;;;;6.05;1.17;;;;;;;;;;5042410;28;20046;-77
2021/01/18 09:40:35;;;;;;;3.15;1.63;;;;;;;;;;5063071;28;20047;-77
2021/01/18 09:43:02;;;;;;;1.83;1.10;;;;;;;;;;5046446;28;20040;-77
2021/01/18 09:45:28;;;;;;;3.22;0.93;;;;;;;;;;5047227;28;20104;-77
2021/01/18 09:47:59;;;;;;;5.88;1.60;;;;;;;;;;5042976;28;20028;-77
2021/01/18 09:50:26;;;;;;;3.70;1.40;;;;;;;;;;5049741;28;20016;-78
2021/01/18 09:52:52;;;;;;;4.95;1.60;;;;;;;;;;5049387;28;20037;-77
2021/01/18 09:55:18;;;;;;;4.45;1.45;;;;;;;;;;5042340;28;20067;-79
2021/01/18 09:57:46;;;;;;;6.47;1.60;;;;;;;;;;5047666;28;20029;-77
2021/01/18 10:00:12;;;;;;;2.90;1.27;;;;;;;;;;5042120;28;20033;-78
2021/01/18 10:02:42;;;;;;;4.00;1.42;;;;;;;;;;5043356;28;20029;-77
2021/01/18 10:05:09;;;;;;;4.13;1.75;;;;;;;;;;5039949;28;20049;-77
2021/01/18 10:07:42;;;;;;;3.42;1.20;;;;;;;;;;5045724;28;20033;-78
2021/01/18 10:10:08;;;;;;;2.42;1.10;;;;;;;;;;5042830;28;20079;-78
2021/01/18 10:12:40;;;;;;;3.22;1.27;;;;;;;;;;5042819;28;20029;-77
2021/01/18 10:15:06;;;;;;;2.20;1.10;;;;;;;;;;5041767;28;20088;-77
2021/01/18 10:17:33;;;;;;;3.00;1.13;;;;;;;;;;5041205;28;20033;-76
2021/01/18 10:20:07;;;;;;;3.03;1.10;;;;;;;;;;5037678;28;20195;-75
2021/01/18 10:22:37;;;;;;;3.22;1.20;;;;;;;;;;5038382;28;20021;-76
2021/01/18 10:25:12;;;;;;;3.20;1.30;;;;;;;;;;5037089;28;20534;-75
2021/01/18 10:27:41;;;;;;;5.03;1.35;;;;;;;;;;5039464;28;20044;-76
2021/01/18 10:30:11;;;;;;;3.75;1.75;;;;;;;;;;5038723;28;20103;-76
2021/01/18 10:32:44;;;;;;;67.50;56.17;;;;;;;;;;5037038;28;20037;-76
2021/01/18 10:35:31;;;;;;;5.45;4.95;;;;;;;;;;5033998;28;20025;-76
2021/01/18 10:38:12;;;;;;;4.10;2.58;;;;;;;;;;4952194;28;20571;-79
2021/01/18 10:40:38;;;;;;;7.47;6.03;;;;;;;;;;4965350;28;20065;-76
2021/01/18 10:43:05;;;;;;;3.50;1.65;;;;;;;;;;4967710;28;20137;-77
2021/01/18 10:45:31;;;;;;;5.88;1.60;;;;;;;;;;4962902;28;20039;-76
2021/01/18 10:48:01;;;;;;;6.85;1.40;;;;;;;;;;4971224;28;20038;-77
2021/01/18 10:50:31;;;;;;;4.88;2.42;;;;;;;;;;4958372;28;20034;-77
2021/01/18 10:53:10;;;;;;;5.07;1.92;;;;;;;;;;4968659;28;20018;-78
2021/01/18 10:55:37;;;;;;;2.88;0.95;;;;;;;;;;4961950;28;20382;-76
2021/01/18 10:58:04;;;;;;;2.92;2.03;;;;;;;;;;4961328;28;20038;-77
2021/01/18 11:00:31;;;;;;;2.08;1.00;;;;;;;;;;4969148;28;20038;-76
2021/01/18 11:03:02;;;;;;;4.38;1.35;;;;;;;;;;4976420;28;20034;-76
2021/01/18 11:05:32;;;;;;;2.72;1.17;;;;;;;;;;4967482;28;20086;-76
2021/01/18 11:07:59;;;;;;;3.33;1.25;;;;;;;;;;4968224;28;20030;-76
2021/01/18 11:10:25;;;;;;;1.58;1.00;;;;;;;;;;4966749;28;20053;-77
2021/01/18 11:13:04;;;;;;;4.05;2.08;;;;;;;;;;4962761;28;20033;-77
2021/01/18 11:15:45;;;;;;;5.65;1.42;;;;;;;;;;4968076;28;20027;-77
2021/01/18 11:18:12;;;;;;;3.00;1.60;;;;;;;;;;4968627;28;20027;-76
2021/01/18 11:20:39;;;;;;;43.25;29.65;;;;;;;;;;4968627;28;20031;-76
2021/01/18 11:23:09;;;;;;;5.25;3.33;;;;;;;;;;4969568;28;20107;-77
2021/01/18 11:25:36;;;;;;;2.95;1.75;;;;;;;;;;4969252;28;20432;-78
2021/01/18 11:28:08;;;;;;;6.50;2.03;;;;;;;;;;4963262;28;20402;-77
2021/01/18 11:30:36;;;;;;;6.47;1.88;;;;;;;;;;4966380;28;20035;-77
2021/01/18 11:33:02;;;;;;;4.65;1.25;;;;;;;;;;4961492;28;20027;-77
2021/01/18 11:35:29;;;;;;;4.38;1.70;;;;;;;;;;4950189;28;20035;-76
2021/01/18 11:37:55;;;;;;;3.55;1.33;;;;;;;;;;4959279;28;20030;-77
2021/01/18 11:40:21;;;;;;;4.55;1.10;;;;;;;;;;4966909;28;20035;-78
2021/01/18 11:42:47;;;;;;;3.58;1.50;;;;;;;;;;4968512;28;20035;-76
2021/01/18 11:45:13;;;;;;;4.43;1.25;;;;;;;;;;4967020;28;20039;-76
2021/01/18 11:47:40;;;;;;;2.45;1.20;;;;;;;;;;4959968;28;20029;-77
2021/01/18 11:50:07;;;;;;;3.20;1.40;;;;;;;;;;4964139;28;20030;-77
2021/01/18 11:52:33;;;;;;;3.08;1.60;;;;;;;;;;4967932;28;20027;-77
2021/01/18 11:55:00;;;;;;;3.30;0.90;;;;;;;;;;4969519;28;20046;-78
2021/01/18 11:57:26;;;;;;;3.45;1.10;;;;;;;;;;4968891;28;20027;-81
2021/01/18 11:59:53;;;;;;;3.75;1.10;;;;;;;;;;4960205;28;20445;-77
2021/01/18 12:02:19;;;;;;;3.25;1.40;;;;;;;;;;4966857;28;20082;-80
2021/01/18 12:04:45;;;;;;;4.07;1.20;;;;;;;;;;4975135;28;20061;-81
2021/01/18 12:07:15;;;;;;;3.70;1.13;;;;;;;;;;4989108;28;20027;-81
2021/01/18 12:09:41;;;;;;;2.08;1.10;;;;;;;;;;4965538;28;20650;-81
2021/01/18 12:12:07;;;;;;;1.80;1.05;;;;;;;;;;4967254;28;20058;-81
2021/01/18 12:14:33;;;;;;;2.33;1.52;;;;;;;;;;4969950;28;20135;-80
2021/01/18 12:17:04;;;;;;;2.75;1.55;;;;;;;;;;4968233;28;20059;-80
2021/01/18 12:19:31;;;;;;;3.33;1.45;;;;;;;;;;4972610;28;20038;-80
2021/01/18 12:21:57;;;;;;;5.03;1.20;;;;;;;;;;4967002;28;20050;-81
2021/01/18 12:24:23;;;;;;;4.45;1.50;;;;;;;;;;4975066;28;20031;-79
2021/01/18 12:26:53;;;;;;;5.03;2.30;;;;;;;;;;4973977;28;20034;-79
2021/01/18 12:29:19;;;;;;;3.45;1.40;;;;;;;;;;4973566;28;20026;-79
2021/01/18 12:31:45;;;;;;;2.72;1.17;;;;;;;;;;4966874;28;20109;-79
2021/01/18 12:34:11;;;;;;;3.53;2.00;;;;;;;;;;4972489;28;20423;-79
2021/01/18 12:36:37;;;;;;;4.20;1.98;;;;;;;;;;4985911;28;20050;-80
2021/01/18 12:39:05;;;;;;;2.47;1.80;;;;;;;;;;4966191;28;20124;-80
2021/01/18 12:41:31;;;;;;;3.38;1.58;;;;;;;;;;4971686;28;20035;-79
2021/01/18 12:43:57;;;;;;;4.00;1.13;;;;;;;;;;4967019;28;20089;-76
2021/01/18 12:46:24;;;;;;;2.15;1.20;;;;;;;;;;4982318;28;20769;-76
2021/01/18 12:48:50;;;;;;;5.65;1.30;;;;;;;;;;4967707;28;20031;-77
2021/01/18 12:51:16;;;;;;;1.90;1.50;;;;;;;;;;4968319;28;20116;-76
2021/01/18 12:53:43;;;;;;;2.78;1.50;;;;;;;;;;4969133;28;20035;-76
2021/01/18 12:56:09;;;;;;;5.50;1.85;;;;;;;;;;4965840;28;20474;-77
2021/01/18 12:58:35;;;;;;;5.45;2.00;;;;;;;;;;4967466;28;20085;-77
2021/01/18 13:01:01;;;;;;;9.32;1.88;;;;;;;;;;4961937;28;20031;-77
2021/01/18 13:03:27;;;;;;;11.75;2.85;;;;;;;;;;4965335;28;20042;-77
2021/01/18 13:05:53;;;;;;;10.20;2.92;;;;;;;;;;4979212;28;20094;-77
2021/01/18 13:08:19;;;;;;;3.40;1.77;;;;;;;;;;4959949;28;20038;-77
2021/01/18 13:10:45;;;;;;;4.38;2.13;;;;;;;;;;4984421;28;20122;-77
2021/01/18 13:13:12;;;;;;;4.05;1.30;;;;;;;;;;4965458;28;20031;-77
2021/01/18 13:15:38;;;;;;;4.20;1.60;;;;;;;;;;4968829;28;20110;-77
2021/01/18 13:18:04;;;;;;;2.03;1.10;;;;;;;;;;4972073;28;20046;-77
2021/01/18 13:20:31;;;;;;;6.35;4.07;;;;;;;;;;4970052;28;20655;-77
2021/01/18 13:22:57;;;;;;;5.50;3.88;;;;;;;;;;4965982;28;20034;-77
2021/01/18 13:25:25;;;;;;;2.85;1.48;;;;;;;;;;4969587;28;20565;-78
2021/01/18 13:27:51;;;;;;;8.32;2.70;;;;;;;;;;4968275;28;20039;-78
2021/01/18 13:30:17;;;;;;;5.78;1.67;;;;;;;;;;4967282;28;20038;-77
2021/01/18 13:32:43;;;;;;;5.05;2.08;;;;;;;;;;4969177;28;20390;-77
2021/01/18 13:35:09;;;;;;;7.32;4.25;;;;;;;;;;4969972;28;20027;-77
2021/01/18 13:37:36;;;;;;;5.20;2.25;;;;;;;;;;4970352;28;20043;-78
2021/01/18 13:40:03;;;;;;;4.47;2.05;;;;;;;;;;4969247;28;20027;-77
2021/01/18 13:42:29;;;;;;;3.42;2.05;;;;;;;;;;4968997;28;20046;-78
2021/01/18 13:44:55;;;;;;;4.70;2.05;;;;;;;;;;4983276;28;20031;-78
2021/01/18 13:47:21;;;;;;;3.03;1.90;;;;;;;;;;4970609;28;20027;-78
2021/01/18 13:49:47;;;;;;;2.83;1.40;;;;;;;;;;4972044;28;20505;-78
2021/01/18 13:52:13;;;;;;;1.70;1.27;;;;;;;;;;4968903;28;20533;-77
2021/01/18 13:54:39;;;;;;;2.42;1.30;;;;;;;;;;4965220;28;21079;-77
2021/01/18 13:57:05;;;;;;;2.83;1.20;;;;;;;;;;4971430;28;20470;-77
2021/01/18 13:59:31;;;;;;;3.25;1.50;;;;;;;;;;4964622;28;20033;-77
2021/01/18 14:02:01;;;;;;;3.67;1.15;;;;;;;;;;4984499;28;20046;-76
2021/01/18 14:04:27;;;;;;;2.72;1.00;;;;;;;;;;4963623;28;20109;-77
2021/01/18 14:06:53;;;;;;;4.22;1.65;;;;;;;;;;4972126;28;20117;-78
2021/01/18 14:09:19;;;;;;;2.05;1.30;;;;;;;;;;4970576;28;20352;-78
2021/01/18 14:11:47;;;;;;;5.85;1.75;;;;;;;;;;4972415;28;20034;-78
2021/01/18 14:14:14;;;;;;;2.38;1.33;;;;;;;;;;4968026;28;20248;-78
2021/01/18 14:16:40;;;;;;;5.47;3.33;;;;;;;;;;4987638;28;20109;-78
2021/01/18 14:19:07;;;;;;;3.47;1.92;;;;;;;;;;4963162;28;20106;-77
2021/01/18 14:21:33;;;;;;;8.60;3.97;;;;;;;;;;4973468;28;20042;-77
2021/01/18 14:24:06;;;;;;;7.43;6.47;;;;;;;;;;4966248;28;20117;-77
2021/01/18 14:26:32;;;;;;;5.10;3.70;;;;;;;;;;4965489;28;20153;-77
2021/01/18 14:28:58;;;;;;;4.80;2.03;;;;;;;;;;4967544;28;20027;-79
2021/01/18 14:31:26;;;;;;;6.25;1.63;;;;;;;;;;4966155;28;20133;-78
2021/01/18 14:33:53;;;;;;;6.30;2.20;;;;;;;;;;4967360;28;20042;-79
2021/01/18 14:36:20;;;;;;;4.32;2.72;;;;;;;;;;4970234;28;20026;-77
2021/01/18 14:38:46;;;;;;;7.00;1.80;;;;;;;;;;4968364;28;20165;-76
2021/01/18 14:41:19;;;;;;;5.80;1.60;;;;;;;;;;4970175;28;20093;-77
2021/01/18 14:43:46;;;;;;;2.63;1.30;;;;;;;;;;4982470;28;20042;-78
2021/01/18 14:46:13;;;;;;;5.82;1.23;;;;;;;;;;4966890;28;20070;-78
2021/01/18 14:48:39;;;;;;;10.02;1.90;;;;;;;;;;4968061;28;20038;-76
2021/01/18 16:24:44;;;;;;;5.32;2.67;;;;;;;;;;5066315;28;20399;-86
2021/01/18 16:27:11;;;;;;;5.75;3.40;;;;;;;;;;5053339;28;20125;-86
2021/01/18 16:29:37;;;;;;;7.47;4.00;;;;;;;;;;5047986;28;20100;-86